Time;durP1;ratioP1;P1;durP2;ratioP2;P2;SDS_P1;SDS_P2;PMS_P1;PMS_P2;Temp;Humidity;BMP_temperature;BMP_pressure;BME280_temperature;BME280_humidity;BME280_pressure;Samples;Min_cycle;Max_cycle;Signal;HPM_P1;HPM_P2
2021/11/28 00:00:18;;;;;;;11.07;6.15;;;-0.40;99.90;;;;;;6281603;22;20027;-88
2021/11/28 00:03:10;;;;;;;9.90;6.05;;;-0.30;99.90;;;;;;6304276;22;20038;-88
2021/11/28 00:06:08;;;;;;;12.77;6.68;;;-0.40;99.90;;;;;;6280026;22;20027;-88
2021/11/28 00:12:37;;;;;;;13.30;6.53;;;-0.30;99.90;;;;;;6306841;22;20019;-87
2021/11/28 00:15:17;;;;;;;13.32;6.38;;;-0.30;99.90;;;;;;6273746;22;20082;-89
2021/11/28 00:18:08;;;;;;;13.88;6.90;;;-0.30;99.90;;;;;;6283266;22;20023;-89
2021/11/28 00:20:56;;;;;;;11.85;6.10;;;-0.30;99.90;;;;;;6305573;22;20507;-88
2021/11/28 00:23:44;;;;;;;18.42;7.10;;;-0.30;99.90;;;;;;6305931;22;20023;-89
2021/11/28 00:26:32;;;;;;;12.00;5.53;;;-0.20;99.90;;;;;;6281675;22;20325;-88
2021/11/28 00:29:23;;;;;;;10.82;5.15;;;-0.20;99.90;;;;;;6285503;22;20023;-86
2021/11/28 00:32:11;;;;;;;10.38;5.35;;;-0.20;99.90;;;;;;6307980;22;20377;-89
2021/11/28 00:34:58;;;;;;;8.90;5.55;;;-0.20;99.90;;;;;;6307201;22;20398;-87
2021/11/28 00:37:46;;;;;;;11.52;4.80;;;-0.10;99.90;;;;;;6283446;22;20050;-89
2021/11/28 00:40:35;;;;;;;10.77;4.50;;;-0.10;99.90;;;;;;6306783;22;20027;-87
2021/11/28 00:43:23;;;;;;;12.70;4.50;;;-0.10;99.90;;;;;;6282464;22;20066;-87
2021/11/28 00:46:10;;;;;;;11.82;4.93;;;0.00;99.90;;;;;;6285254;22;20062;-88
2021/11/28 00:49:03;;;;;;;11.70;4.65;;;0.00;99.90;;;;;;6260816;22;20422;-89
2021/11/28 00:51:52;;;;;;;8.68;4.43;;;-0.10;99.90;;;;;;6306053;22;20165;-86
2021/11/28 00:54:41;;;;;;;10.10;5.05;;;-0.10;99.90;;;;;;6282286;22;20019;-87
2021/11/28 00:57:29;;;;;;;7.40;4.18;;;-0.10;99.90;;;;;;6285306;22;20407;-88
2021/11/28 01:00:16;;;;;;;9.90;4.63;;;0.00;99.90;;;;;;6305471;22;20516;-85
2021/11/28 01:03:04;;;;;;;15.07;4.65;;;0.00;99.90;;;;;;6284228;22;20035;-87
2021/11/28 01:05:53;;;;;;;7.63;4.40;;;0.00;99.90;;;;;;6306384;22;20357;-87
2021/11/28 01:08:41;;;;;;;9.73;4.22;;;0.00;99.90;;;;;;6283373;22;20027;-87
2021/11/28 01:11:28;;;;;;;7.35;4.15;;;0.00;99.90;;;;;;6283246;22;20023;-88
2021/11/28 01:14:15;;;;;;;11.88;4.55;;;0.00;99.90;;;;;;6264274;22;20042;-87
2021/11/28 01:17:06;;;;;;;13.18;4.72;;;0.00;99.90;;;;;;6281782;22;20051;-88
2021/11/28 01:19:56;;;;;;;10.88;4.45;;;0.00;99.90;;;;;;6283400;22;20482;-86
2021/11/28 01:22:45;;;;;;;9.32;5.00;;;0.00;99.90;;;;;;6283609;22;20038;-88
2021/11/28 01:25:35;;;;;;;10.68;4.85;;;0.00;99.90;;;;;;6304547;22;20019;-88
2021/11/28 01:28:22;;;;;;;7.80;4.60;;;0.00;99.90;;;;;;6282320;22;20474;-88
2021/11/28 01:31:11;;;;;;;10.90;4.70;;;0.00;99.90;;;;;;6284662;22;20446;-87
2021/11/28 01:33:59;;;;;;;10.35;4.90;;;0.00;99.90;;;;;;6241571;22;20034;-86
2021/11/28 01:36:46;;;;;;;9.88;5.72;;;-0.10;99.90;;;;;;6260035;22;20031;-88
2021/11/28 01:39:34;;;;;;;9.82;5.53;;;-0.10;99.90;;;;;;6284480;22;20104;-86
2021/11/28 01:42:46;;;;;;;12.25;5.57;;;-0.10;99.90;;;;;;6284109;22;20457;-88
2021/11/28 01:45:36;;;;;;;14.98;6.05;;;-0.10;99.90;;;;;;6283454;22;20035;-89
2021/11/28 01:48:26;;;;;;;10.80;5.28;;;-0.10;99.90;;;;;;6285040;22;20135;-88
2021/11/28 01:51:13;;;;;;;10.05;5.25;;;-0.10;99.90;;;;;;6283999;22;20084;-87
2021/11/28 01:54:12;;;;;;;19.05;6.32;;;-0.10;99.90;;;;;;6281173;22;20019;-88
2021/11/28 01:56:59;;;;;;;9.48;5.65;;;-0.10;99.90;;;;;;6284012;22;20023;-87
2021/11/28 01:59:49;;;;;;;8.35;5.70;;;-0.10;99.90;;;;;;6272650;22;20046;-86
2021/11/28 02:02:37;;;;;;;10.82;6.38;;;-0.10;99.90;;;;;;6251810;22;20020;-87
2021/11/28 02:05:27;;;;;;;13.30;6.18;;;-0.10;99.90;;;;;;6314170;22;20019;-87
2021/11/28 02:08:17;;;;;;;12.98;5.45;;;-0.10;99.90;;;;;;6294439;22;20108;-86
2021/11/28 02:11:04;;;;;;;14.52;5.75;;;-0.10;99.90;;;;;;6306592;22;20640;-85
2021/11/28 02:13:52;;;;;;;8.38;5.15;;;-0.10;99.90;;;;;;6284007;22;20098;-87
2021/11/28 02:16:43;;;;;;;9.18;5.75;;;-0.10;99.90;;;;;;6307345;22;20112;-88
2021/11/28 02:19:32;;;;;;;8.55;4.85;;;-0.10;99.90;;;;;;6263195;22;20023;-88
2021/11/28 02:22:20;;;;;;;11.02;5.78;;;0.00;99.90;;;;;;6262375;22;20314;-86
2021/11/28 02:25:11;;;;;;;8.35;4.60;;;0.00;99.90;;;;;;6284536;22;20092;-88
2021/11/28 02:27:58;;;;;;;10.07;5.15;;;0.00;99.90;;;;;;6282528;22;20487;-88
2021/11/28 02:30:46;;;;;;;10.98;5.20;;;0.10;99.90;;;;;;6260774;22;20045;-87
2021/11/28 02:33:34;;;;;;;10.00;5.35;;;0.10;99.90;;;;;;6240391;22;20102;-87
2021/11/28 02:36:21;;;;;;;15.63;5.85;;;0.10;99.90;;;;;;6304673;22;20027;-87
2021/11/28 02:39:09;;;;;;;10.60;5.93;;;0.00;99.90;;;;;;6283195;22;20140;-88
2021/11/28 02:41:58;;;;;;;14.05;5.30;;;0.00;99.90;;;;;;6280494;22;20038;-88
2021/11/28 02:44:47;;;;;;;9.65;4.97;;;0.00;99.90;;;;;;6303082;22;20019;-88
2021/11/28 02:47:42;;;;;;;6.57;4.22;;;0.00;99.90;;;;;;6245146;22;20023;-87
2021/11/28 02:50:32;;;;;;;12.13;4.85;;;0.00;99.90;;;;;;6282175;22;20023;-87
2021/11/28 02:53:22;;;;;;;6.75;4.80;;;0.00;99.90;;;;;;6306006;22;20361;-87
2021/11/28 02:56:09;;;;;;;10.15;4.95;;;0.10;99.90;;;;;;6281167;22;20031;-87
2021/11/28 02:58:56;;;;;;;8.38;4.85;;;0.00;99.90;;;;;;6282977;22;20110;-89
2021/11/28 03:01:44;;;;;;;10.60;4.68;;;0.10;99.90;;;;;;6282111;22;20051;-87
2021/11/28 03:04:33;;;;;;;10.80;4.63;;;0.10;99.90;;;;;;6282492;22;20068;-89
2021/11/28 03:07:23;;;;;;;7.90;4.30;;;0.10;99.90;;;;;;6260800;22;20330;-88
2021/11/28 03:10:30;;;;;;;9.65;4.30;;;0.10;99.90;;;;;;6282151;22;20655;-88
2021/11/28 03:13:33;;;;;;;12.85;4.70;;;0.10;99.90;;;;;;6302714;22;20023;-88
2021/11/28 03:16:26;;;;;;;9.25;4.10;;;0.20;99.90;;;;;;6281953;22;20023;-88
2021/11/28 03:19:13;;;;;;;;;;;0.20;99.90;;;;;;6284858;22;20391;-88
2021/11/28 03:22:01;;;;;;;8.10;4.07;;;0.20;99.90;;;;;;6281795;22;20257;-88
2021/11/28 03:24:48;;;;;;;8.98;4.47;;;0.20;99.90;;;;;;6283786;22;20307;-87
2021/11/28 03:27:35;;;;;;;10.13;4.10;;;0.30;99.90;;;;;;6261625;22;20398;-88
2021/11/28 03:30:22;;;;;;;7.65;4.38;;;0.30;99.90;;;;;;6282634;22;20023;-89
2021/11/28 03:33:10;;;;;;;7.28;4.35;;;0.30;99.90;;;;;;6280719;22;20046;-87
2021/11/28 03:35:57;;;;;;;7.72;4.38;;;0.30;99.90;;;;;;6282185;22;20341;-88
2021/11/28 03:38:47;;;;;;;9.20;4.18;;;0.30;99.90;;;;;;6283818;22;20422;-88
2021/11/28 03:41:38;;;;;;;10.85;4.15;;;0.30;99.90;;;;;;6282751;22;20093;-87
2021/11/28 03:44:26;;;;;;;7.72;3.90;;;0.30;99.90;;;;;;6286029;22;20472;-88
2021/11/28 03:47:14;;;;;;;8.00;3.95;;;0.30;99.90;;;;;;6264715;22;20152;-85
2021/11/28 03:50:05;;;;;;;9.77;4.97;;;0.30;99.90;;;;;;6286307;22;20019;-88
2021/11/28 03:52:53;;;;;;;8.82;4.25;;;0.20;99.90;;;;;;6306411;22;20034;-88
2021/11/28 03:55:41;;;;;;;8.70;3.45;;;0.20;99.90;;;;;;6286194;22;20027;-88
2021/11/28 03:58:29;;;;;;;8.02;3.75;;;0.20;99.90;;;;;;6242080;22;20076;-86
2021/11/28 04:01:17;;;;;;;6.60;4.47;;;0.20;99.90;;;;;;6284593;22;20027;-85
2021/11/28 04:04:13;;;;;;;7.00;3.88;;;0.20;99.90;;;;;;6283182;22;20458;-88
2021/11/28 04:07:00;;;;;;;10.18;4.40;;;0.20;99.90;;;;;;6286663;22;20508;-88
2021/11/28 04:09:50;;;;;;;6.82;3.75;;;0.20;99.90;;;;;;6284965;22;20035;-87
2021/11/28 04:12:40;;;;;;;7.18;3.92;;;0.20;99.90;;;;;;6321119;22;20023;-86
2021/11/28 04:15:28;;;;;;;9.07;3.85;;;0.20;99.90;;;;;;6301888;22;20069;-88
2021/11/28 04:18:15;;;;;;;8.20;3.67;;;0.20;99.90;;;;;;6300925;22;20407;-86
2021/11/28 04:21:02;;;;;;;14.88;4.20;;;0.30;99.90;;;;;;6300487;22;20079;-86
2021/11/28 04:23:53;;;;;;;5.93;3.58;;;0.30;99.90;;;;;;6298301;22;20034;-86
2021/11/28 04:26:41;;;;;;;7.43;4.25;;;0.30;99.90;;;;;;6326175;22;20066;-88
2021/11/28 04:29:28;;;;;;;9.35;4.05;;;0.30;99.90;;;;;;6311423;22;20037;-87
2021/11/28 04:32:16;;;;;;;8.63;3.65;;;0.30;99.90;;;;;;6291378;22;20026;-87
2021/11/28 04:35:04;;;;;;;6.22;3.50;;;0.30;99.90;;;;;;6331046;22;20014;-86
2021/11/28 04:37:52;;;;;;;7.53;4.07;;;0.30;99.90;;;;;;6332127;22;20027;-88
2021/11/28 04:40:39;;;;;;;7.72;3.63;;;0.30;99.90;;;;;;6307001;22;20499;-88
2021/11/28 04:43:26;;;;;;;7.32;3.67;;;0.30;99.90;;;;;;6285264;22;20038;-88
2021/11/28 04:46:13;;;;;;;5.28;3.60;;;0.30;99.90;;;;;;6283980;22;20023;-88
2021/11/28 04:49:03;;;;;;;7.35;3.65;;;0.30;99.90;;;;;;6283405;22;20026;-88
2021/11/28 04:51:51;;;;;;;8.45;3.17;;;0.30;99.90;;;;;;6281457;22;20039;-87
2021/11/28 04:54:39;;;;;;;5.65;3.35;;;0.30;99.90;;;;;;6304120;22;20035;-88
2021/11/28 04:57:28;;;;;;;6.60;3.47;;;0.20;99.90;;;;;;6262578;22;20475;-88
2021/11/28 05:00:22;;;;;;;9.38;3.85;;;0.30;99.90;;;;;;6306328;22;20311;-87
2021/11/28 05:03:30;;;;;;;8.32;3.85;;;0.30;99.90;;;;;;6283144;22;20031;-87
2021/11/28 05:06:18;;;;;;;6.70;4.00;;;0.30;99.90;;;;;;6261287;22;20065;-88
2021/11/28 05:09:05;;;;;;;3.72;3.38;;;0.30;99.90;;;;;;6282837;22;20122;-89
2021/11/28 05:11:52;;;;;;;6.55;3.60;;;0.30;99.90;;;;;;6281326;22;20026;-87
2021/11/28 05:14:42;;;;;;;11.07;3.85;;;0.20;99.90;;;;;;6282823;22;20024;-87
2021/11/28 05:17:33;;;;;;;10.02;3.42;;;0.30;99.90;;;;;;6303809;22;20038;-87
2021/11/28 05:20:22;;;;;;;5.30;3.33;;;0.30;99.90;;;;;;6284640;22;20023;-88
2021/11/28 05:23:09;;;;;;;9.02;3.83;;;0.30;99.90;;;;;;6261342;22;20027;-88
2021/11/28 05:25:59;;;;;;;9.27;4.00;;;0.30;99.90;;;;;;6283560;22;20057;-88
2021/11/28 05:28:48;;;;;;;10.23;3.58;;;0.30;99.90;;;;;;6304299;22;20045;-87
2021/11/28 05:31:35;;;;;;;7.45;3.70;;;0.20;99.90;;;;;;6283671;22;20761;-89
2021/11/28 05:34:22;;;;;;;7.43;3.40;;;0.20;99.90;;;;;;6263285;22;20321;-87
2021/11/28 05:37:11;;;;;;;7.15;3.40;;;0.20;99.90;;;;;;6284302;22;20432;-86
2021/11/28 05:40:02;;;;;;;9.85;3.60;;;0.20;99.90;;;;;;6284987;22;20027;-88
2021/11/28 05:42:52;;;;;;;7.32;3.47;;;0.20;99.90;;;;;;6284658;22;20410;-88
2021/11/28 05:45:39;;;;;;;7.13;3.95;;;0.20;99.90;;;;;;6244018;22;20023;-87
2021/11/28 05:48:27;;;;;;;8.15;4.00;;;0.10;99.90;;;;;;6282164;22;20027;-88
2021/11/28 05:51:14;;;;;;;8.10;3.20;;;0.20;99.90;;;;;;6283552;22;20027;-87
2021/11/28 05:54:04;;;;;;;10.38;4.30;;;0.20;99.90;;;;;;6262925;22;20039;-87
2021/11/28 05:56:53;;;;;;;10.25;3.58;;;0.20;99.90;;;;;;6264174;22;20206;-88
2021/11/28 05:59:43;;;;;;;7.65;3.83;;;0.20;99.90;;;;;;6304879;22;20126;-87
2021/11/28 06:02:32;;;;;;;8.30;3.92;;;0.20;99.90;;;;;;6283131;22;20031;-88
2021/11/28 06:05:19;;;;;;;9.43;3.90;;;0.20;99.90;;;;;;6260812;22;20027;-88
2021/11/28 06:08:07;;;;;;;6.13;3.75;;;0.20;99.90;;;;;;6284188;22;20345;-87
2021/11/28 06:10:54;;;;;;;8.73;4.00;;;0.20;99.90;;;;;;6282303;22;20120;-88
2021/11/28 06:13:41;;;;;;;7.63;4.18;;;0.10;99.90;;;;;;6253957;22;20027;-86
2021/11/28 06:16:28;;;;;;;6.78;4.03;;;0.10;99.90;;;;;;6252430;22;20036;-88
2021/11/28 06:19:16;;;;;;;5.60;3.88;;;0.10;99.90;;;;;;6276405;22;20121;-87
2021/11/28 06:22:05;;;;;;;11.23;3.80;;;0.10;99.90;;;;;;6274002;22;20057;-88
2021/11/28 06:24:52;;;;;;;7.22;3.90;;;0.10;99.90;;;;;;6278974;22;20075;-86
2021/11/28 06:27:39;;;;;;;12.60;4.00;;;0.10;99.90;;;;;;6257350;22;20023;-85
2021/11/28 06:30:26;;;;;;;6.05;3.50;;;0.10;99.90;;;;;;6258064;22;20031;-87
2021/11/28 06:33:15;;;;;;;5.60;3.22;;;0.10;99.90;;;;;;6252191;22;20024;-84
2021/11/28 06:36:02;;;;;;;6.25;4.20;;;0.10;99.90;;;;;;6251180;22;20035;-82
2021/11/28 06:38:53;;;;;;;6.45;3.70;;;0.10;99.90;;;;;;6253531;22;20058;-82
2021/11/28 06:41:41;;;;;;;8.60;4.50;;;0.10;99.90;;;;;;6251128;22;20104;-85
2021/11/28 06:44:28;;;;;;;7.07;3.88;;;0.10;99.90;;;;;;6274255;22;20113;-83
2021/11/28 06:47:18;;;;;;;8.43;4.22;;;0.10;99.90;;;;;;6273882;22;20046;-86
2021/11/28 06:50:07;;;;;;;11.25;5.13;;;0.10;99.90;;;;;;6251094;22;20023;-85
2021/11/28 06:52:57;;;;;;;8.10;4.30;;;0.10;99.90;;;;;;6253158;22;20027;-87
2021/11/28 06:55:45;;;;;;;11.07;4.53;;;0.10;99.90;;;;;;6233205;22;20024;-86
2021/11/28 06:58:37;;;;;;;6.50;4.35;;;0.10;99.90;;;;;;6272258;22;20059;-86
2021/11/28 07:01:25;;;;;;;7.63;4.30;;;0.00;99.90;;;;;;6273568;22;20020;-86
2021/11/28 07:04:12;;;;;;;7.10;4.15;;;0.00;99.90;;;;;;6271443;22;20027;-88
2021/11/28 07:06:59;;;;;;;6.88;3.85;;;0.00;99.90;;;;;;6229695;22;20089;-88
2021/11/28 07:09:49;;;;;;;7.25;4.05;;;0.00;99.90;;;;;;6272134;22;20031;-88
2021/11/28 07:12:37;;;;;;;7.50;4.57;;;0.00;99.90;;;;;;6293588;22;20031;-88
2021/11/28 07:23:48;;;;;;;7.68;3.92;;;0.00;99.90;;;;;;6305173;22;20003;-90
2021/11/28 07:26:37;;;;;;;6.22;4.32;;;0.00;99.90;;;;;;6305984;22;20030;-84
2021/11/28 07:29:29;;;;;;;5.38;3.53;;;0.00;99.90;;;;;;6282541;22;20144;-88
2021/11/28 07:32:16;;;;;;;7.55;3.65;;;0.10;99.90;;;;;;6282091;22;20031;-87
2021/11/28 07:35:06;;;;;;;7.47;3.85;;;0.10;99.90;;;;;;6281041;22;20121;-90
2021/11/28 07:37:56;;;;;;;9.75;4.35;;;0.10;99.90;;;;;;6282230;22;20081;-89
2021/11/28 07:40:43;;;;;;;8.65;4.60;;;0.20;99.90;;;;;;6282288;22;20027;-89
2021/11/28 07:43:31;;;;;;;8.55;4.85;;;0.20;99.90;;;;;;6303809;22;20430;-89
2021/11/28 07:46:19;;;;;;;9.88;5.55;;;0.30;99.90;;;;;;6281872;22;20145;-90
2021/11/28 07:49:09;;;;;;;10.40;5.50;;;0.30;99.90;;;;;;6281521;22;20019;-89
2021/11/28 07:51:56;;;;;;;10.23;6.32;;;0.40;99.90;;;;;;6281550;22;20083;-90
2021/11/28 07:54:46;;;;;;;14.63;8.65;;;0.50;99.90;;;;;;6305014;22;20082;-90
2021/11/28 07:57:33;;;;;;;11.55;7.10;;;0.50;99.90;;;;;;6279572;22;20085;-90
2021/11/28 08:00:23;;;;;;;20.83;10.70;;;0.50;99.90;;;;;;6304799;22;20023;-89
2021/11/28 08:03:11;;;;;;;20.10;9.27;;;0.50;99.90;;;;;;6282451;22;20554;-89
2021/11/28 08:06:00;;;;;;;12.07;6.28;;;0.60;99.90;;;;;;6285297;22;20054;-89
2021/11/28 08:08:51;;;;;;;7.80;4.75;;;0.60;99.90;;;;;;6261281;22;20089;-89
2021/11/28 08:11:41;;;;;;;8.38;4.80;;;0.70;99.90;;;;;;6282678;22;20089;-88
2021/11/28 08:14:28;;;;;;;9.88;4.68;;;0.80;99.90;;;;;;6302325;22;20031;-88
2021/11/28 08:17:18;;;;;;;6.20;3.70;;;0.80;99.90;;;;;;6240575;22;20493;-90
2021/11/28 08:20:07;;;;;;;7.28;4.00;;;0.80;99.90;;;;;;6304171;22;20031;-89
2021/11/28 08:22:56;;;;;;;8.48;4.20;;;0.90;99.90;;;;;;6280231;22;20026;-87
2021/11/28 08:25:45;;;;;;;11.18;4.13;;;1.00;99.90;;;;;;6283652;22;20035;-89
2021/11/28 08:28:32;;;;;;;5.88;3.90;;;1.00;99.90;;;;;;6262491;22;20505;-87
2021/11/28 08:31:22;;;;;;;10.55;4.50;;;1.00;99.90;;;;;;6307019;22;20073;-87
2021/11/28 08:34:13;;;;;;;12.68;5.15;;;1.10;99.90;;;;;;6263084;22;20418;-87
2021/11/28 08:37:04;;;;;;;7.57;4.78;;;1.10;99.90;;;;;;6283372;22;20432;-87
2021/11/28 08:39:54;;;;;;;10.50;4.50;;;1.00;99.90;;;;;;6306509;22;20402;-85
2021/11/28 08:42:41;;;;;;;11.30;5.60;;;1.10;99.90;;;;;;6280649;22;20334;-85
2021/11/28 08:45:32;;;;;;;8.10;4.35;;;1.10;99.90;;;;;;6281724;22;20042;-87
2021/11/28 08:48:19;;;;;;;11.23;5.68;;;1.20;99.90;;;;;;6259851;22;20038;-86
2021/11/28 08:51:09;;;;;;;7.75;4.65;;;1.20;99.90;;;;;;6280851;22;20422;-85
2021/11/28 08:53:58;;;;;;;7.88;4.95;;;1.30;99.90;;;;;;6283820;22;20303;-87
2021/11/28 08:56:50;;;;;;;12.23;6.00;;;1.30;99.90;;;;;;6285045;22;20066;-86
2021/11/28 08:59:38;;;;;;;7.40;5.28;;;1.30;99.90;;;;;;6283281;22;20099;-87
2021/11/28 09:02:25;;;;;;;12.25;5.75;;;1.30;99.90;;;;;;6262054;22;20031;-88
2021/11/28 09:05:12;;;;;;;9.13;6.20;;;1.30;99.90;;;;;;6281746;22;20088;-87
2021/11/28 09:08:02;;;;;;;8.20;5.15;;;1.30;99.90;;;;;;6282180;22;20030;-87
2021/11/28 09:10:52;;;;;;;10.57;5.45;;;1.30;99.90;;;;;;6305090;22;20031;-86
2021/11/28 09:13:42;;;;;;;9.18;6.18;;;1.30;99.90;;;;;;6285815;22;20024;-88
2021/11/28 09:16:29;;;;;;;8.27;5.50;;;1.30;99.90;;;;;;6283414;22;20461;-87
2021/11/28 09:19:21;;;;;;;11.98;5.20;;;1.40;99.90;;;;;;6305384;22;20019;-88
2021/11/28 09:22:11;;;;;;;8.67;5.03;;;1.50;99.90;;;;;;6283646;22;20023;-85
2021/11/28 09:25:01;;;;;;;9.60;4.43;;;1.40;99.90;;;;;;6307491;22;20238;-87
2021/11/28 09:27:52;;;;;;;7.30;4.40;;;1.50;99.90;;;;;;6283607;22;20144;-86
2021/11/28 09:30:39;;;;;;;7.65;4.20;;;1.50;99.90;;;;;;6282718;22;20031;-88
2021/11/28 09:33:27;;;;;;;8.65;5.10;;;1.60;99.90;;;;;;6286845;22;20015;-87
2021/11/28 09:36:15;;;;;;;7.90;5.05;;;1.60;99.90;;;;;;6307703;22;20073;-86
2021/11/28 09:39:05;;;;;;;8.00;4.82;;;1.60;99.90;;;;;;6285755;22;20410;-85
2021/11/28 09:42:19;;;;;;;9.50;4.55;;;1.70;99.90;;;;;;6289278;22;20033;-85
2021/11/28 09:45:08;;;;;;;7.53;4.72;;;1.70;99.90;;;;;;6294205;22;20027;-85
2021/11/28 09:47:58;;;;;;;8.32;4.93;;;1.80;99.90;;;;;;6303388;22;20008;-85
2021/11/28 09:50:46;;;;;;;8.98;5.25;;;1.90;99.90;;;;;;6283068;22;20031;-85
2021/11/28 09:53:56;;;;;;;7.63;4.47;;;1.90;99.90;;;;;;6306219;22;20106;-85
2021/11/28 09:56:46;;;;;;;8.27;5.13;;;1.90;99.90;;;;;;6283913;22;20027;-86
2021/11/28 09:59:34;;;;;;;10.55;5.03;;;1.90;99.90;;;;;;6282973;22;20144;-87
2021/11/28 10:02:27;;;;;;;9.57;6.15;;;2.00;99.90;;;;;;6307606;22;20025;-87
2021/11/28 10:05:15;;;;;;;8.23;6.10;;;2.10;99.90;;;;;;6283708;22;20051;-86
2021/11/28 10:08:03;;;;;;;12.85;5.85;;;2.10;99.90;;;;;;6282301;22;20084;-87
2021/11/28 10:11:20;;;;;;;15.30;9.55;;;2.00;99.90;;;;;;6283428;22;20030;-87
2021/11/28 10:14:13;;;;;;;17.17;8.75;;;2.00;99.90;;;;;;6281544;22;20394;-87
2021/11/28 10:17:01;;;;;;;12.90;6.72;;;2.10;99.90;;;;;;6284077;22;20019;-86
2021/11/28 10:19:49;;;;;;;12.35;6.43;;;2.10;99.90;;;;;;6283772;22;20433;-87
2021/11/28 10:22:37;;;;;;;11.98;6.80;;;2.10;99.90;;;;;;6282211;22;20019;-87
2021/11/28 10:25:32;;;;;;;17.60;6.97;;;2.20;99.90;;;;;;6283839;22;20124;-86
2021/11/28 10:28:19;;;;;;;12.60;6.10;;;2.30;99.90;;;;;;6283889;22;20034;-87
2021/11/28 10:31:20;;;;;;;9.13;5.28;;;2.30;99.90;;;;;;6240739;22;20438;-85
2021/11/28 10:34:18;;;;;;;11.25;4.93;;;2.30;99.90;;;;;;6283853;22;20118;-84
2021/11/28 10:37:07;;;;;;;7.82;4.32;;;2.30;99.90;;;;;;6303710;22;20055;-85
2021/11/28 10:39:58;;;;;;;7.45;4.30;;;2.30;99.90;;;;;;6306623;22;20118;-85
2021/11/28 10:42:48;;;;;;;8.82;4.80;;;2.20;99.90;;;;;;6282692;22;20095;-86
2021/11/28 10:45:47;;;;;;;8.73;4.63;;;2.20;99.90;;;;;;6282921;22;20038;-88
2021/11/28 10:48:34;;;;;;;6.55;4.72;;;2.10;99.90;;;;;;6281989;22;20341;-88
2021/11/28 10:51:27;;;;;;;9.20;5.35;;;2.10;99.90;;;;;;6283103;22;20380;-87
2021/11/28 10:54:35;;;;;;;11.18;6.25;;;2.10;99.90;;;;;;6282227;22;20030;-86
2021/11/28 10:57:25;;;;;;;11.75;5.63;;;2.10;99.90;;;;;;6304057;22;20343;-86
2021/11/28 11:00:13;;;;;;;8.98;5.82;;;2.10;99.90;;;;;;6281770;22;20038;-86
2021/11/28 11:03:26;;;;;;;8.38;5.22;;;2.00;99.90;;;;;;6281913;22;20023;-86
2021/11/28 11:06:26;;;;;;;;;;;1.90;99.90;;;;;;6283407;22;20026;-86
2021/11/28 11:09:21;;;;;;;10.93;5.43;;;1.90;99.90;;;;;;6303836;22;19919;-86
2021/11/28 11:12:21;;;;;;;9.90;6.28;;;1.90;99.90;;;;;;6281392;22;20426;-86
2021/11/28 11:15:08;;;;;;;11.75;6.10;;;1.90;99.90;;;;;;6282389;22;20031;-87
2021/11/28 11:18:00;;;;;;;10.07;5.97;;;2.00;99.90;;;;;;6262106;22;20085;-89
2021/11/28 11:21:01;;;;;;;12.73;6.57;;;2.00;99.90;;;;;;6303343;22;20114;-88
2021/11/28 11:23:55;;;;;;;10.40;6.22;;;2.10;99.90;;;;;;6303524;22;20031;-87
2021/11/28 11:26:48;;;;;;;10.88;6.75;;;2.10;99.90;;;;;;6283324;22;20136;-87
2021/11/28 11:29:36;;;;;;;8.88;5.80;;;2.20;99.90;;;;;;6306403;22;20053;-85
2021/11/28 11:32:25;;;;;;;8.55;5.25;;;2.20;99.90;;;;;;6282384;22;20028;-89
2021/11/28 11:35:26;;;;;;;13.55;6.40;;;2.20;99.90;;;;;;6308207;22;20070;-87
2021/11/28 11:38:17;;;;;;;7.20;4.50;;;2.20;99.90;;;;;;6283366;22;20107;-88
2021/11/28 11:41:07;;;;;;;9.27;5.25;;;2.20;99.90;;;;;;6281952;22;20029;-86
2021/11/28 11:43:57;;;;;;;8.80;4.47;;;2.20;99.90;;;;;;6259184;22;20031;-88
2021/11/28 11:46:46;;;;;;;7.80;5.20;;;2.30;99.90;;;;;;6260599;22;20062;-84
2021/11/28 11:49:34;;;;;;;5.75;4.60;;;2.30;99.90;;;;;;6283957;22;20023;-86
2021/11/28 11:52:22;;;;;;;6.85;4.80;;;2.40;99.90;;;;;;6282896;22;20027;-86
2021/11/28 11:55:13;;;;;;;9.75;5.30;;;2.50;99.90;;;;;;6282757;22;20027;-88
2021/11/28 11:58:25;;;;;;;9.50;5.28;;;2.50;99.90;;;;;;6281322;22;20024;-89
2021/11/28 12:01:23;;;;;;;10.32;5.15;;;2.50;99.90;;;;;;6281435;22;20085;-86
2021/11/28 12:04:38;;;;;;;10.18;6.18;;;2.50;99.90;;;;;;6284353;22;20030;-85
2021/11/28 12:07:47;;;;;;;9.47;5.43;;;2.60;99.90;;;;;;6305914;22;20030;-86
2021/11/28 12:10:53;;;;;;;11.38;7.40;;;2.60;99.90;;;;;;6305382;22;20688;-88
2021/11/28 12:13:40;;;;;;;7.95;5.50;;;2.70;99.90;;;;;;6274965;22;20027;-86
2021/11/28 12:16:35;;;;;;;9.05;5.88;;;2.60;99.90;;;;;;6278712;22;20015;-85
2021/11/28 12:19:43;;;;;;;9.82;5.95;;;2.60;99.90;;;;;;6252854;22;20024;-87
2021/11/28 12:22:43;;;;;;;9.68;5.80;;;2.60;99.90;;;;;;6276844;22;20096;-87
2021/11/28 12:25:42;;;;;;;11.88;6.78;;;2.60;99.90;;;;;;6274047;22;20031;-82
2021/11/28 12:28:31;;;;;;;10.75;5.68;;;2.60;99.90;;;;;;6254206;22;20301;-86
2021/11/28 12:31:43;;;;;;;9.07;5.43;;;2.50;99.90;;;;;;6257471;22;20030;-88
2021/11/28 12:34:45;;;;;;;9.50;4.90;;;2.40;99.90;;;;;;6276870;22;20015;-88
2021/11/28 12:37:40;;;;;;;8.05;5.15;;;2.40;99.90;;;;;;6276609;22;20046;-88
2021/11/28 12:40:33;;;;;;;7.57;5.03;;;2.50;99.90;;;;;;6273541;22;20042;-89
2021/11/28 12:43:22;;;;;;;8.13;5.28;;;2.50;99.90;;;;;;6255114;22;20066;-88
2021/11/28 12:46:30;;;;;;;7.63;4.47;;;2.50;99.90;;;;;;6252999;22;20114;-89
2021/11/28 12:49:32;;;;;;;7.43;5.28;;;2.50;99.90;;;;;;6272358;22;20340;-87
2021/11/28 12:52:39;;;;;;;7.03;5.25;;;2.40;99.90;;;;;;6273052;22;20129;-88
2021/11/28 12:55:27;;;;;;;7.57;4.97;;;2.30;99.90;;;;;;6252658;22;20334;-88
2021/11/28 12:58:14;;;;;;;7.57;5.25;;;2.40;99.90;;;;;;6274664;22;20077;-87
2021/11/28 13:01:02;;;;;;;7.95;4.80;;;2.40;99.90;;;;;;6230012;22;20092;-88
2021/11/28 13:04:03;;;;;;;8.15;4.45;;;2.40;99.90;;;;;;6249780;22;20042;-88
2021/11/28 13:06:50;;;;;;;7.93;4.35;;;2.50;99.90;;;;;;6253249;22;20209;-89
2021/11/28 13:09:38;;;;;;;6.63;4.82;;;2.50;99.90;;;;;;6273249;22;20031;-88
2021/11/28 13:12:27;;;;;;;8.73;5.03;;;2.60;99.90;;;;;;6271416;22;20035;-89
2021/11/28 13:15:21;;;;;;;6.75;4.43;;;2.70;99.90;;;;;;6306465;22;20497;-91
2021/11/28 13:18:11;;;;;;;7.15;5.00;;;2.90;99.90;;;;;;6303601;22;20027;-90
2021/11/28 13:21:02;;;;;;;5.65;3.95;;;3.00;99.90;;;;;;6303965;22;20027;-91
2021/11/28 13:23:56;;;;;;;6.90;4.38;;;3.20;99.90;;;;;;6303929;22;20119;-91
2021/11/28 13:26:54;;;;;;;5.97;3.58;;;3.30;99.90;;;;;;6263754;22;20034;-90
2021/11/28 13:29:52;;;;;;;5.28;3.25;;;3.40;99.90;;;;;;6283567;22;20026;-90
2021/11/28 13:32:39;;;;;;;5.35;3.50;;;3.50;99.90;;;;;;6284348;22;20027;-90
2021/11/28 13:35:31;;;;;;;6.28;3.60;;;3.40;99.90;;;;;;6284611;22;20041;-89
2021/11/28 13:38:22;;;;;;;5.95;3.50;;;3.50;99.90;;;;;;6305985;22;20027;-89
2021/11/28 13:41:14;;;;;;;5.50;3.35;;;3.50;99.90;;;;;;6286530;22;20084;-90
2021/11/28 13:44:12;;;;;;;4.78;3.83;;;3.50;99.90;;;;;;6308951;22;20046;-90
2021/11/28 13:47:01;;;;;;;6.75;3.75;;;3.40;99.90;;;;;;6286562;22;20043;-89
2021/11/28 13:49:54;;;;;;;6.38;4.07;;;3.40;99.90;;;;;;6282233;22;20019;-88
2021/11/28 13:52:44;;;;;;;5.65;3.75;;;3.40;99.90;;;;;;6283484;22;20030;-91
2021/11/28 13:55:48;;;;;;;7.15;3.20;;;3.50;99.90;;;;;;6262310;22;20038;-87
2021/11/28 13:58:35;;;;;;;5.75;3.58;;;3.50;99.90;;;;;;6282691;22;20027;-91
2021/11/28 14:01:25;;;;;;;6.40;3.25;;;3.40;99.90;;;;;;6281806;22;20027;-90
2021/11/28 14:04:24;;;;;;;5.13;3.10;;;3.10;99.90;;;;;;6263714;22;20330;-87
2021/11/28 14:07:23;;;;;;;4.70;3.58;;;2.90;99.90;;;;;;6306042;22;20042;-89
2021/11/28 14:10:12;;;;;;;5.40;3.22;;;2.80;99.90;;;;;;6283437;22;20031;-88
2021/11/28 14:13:04;;;;;;;4.00;2.95;;;2.90;99.90;;;;;;6282904;22;20069;-89
2021/11/28 14:15:54;;;;;;;3.65;3.33;;;2.80;99.90;;;;;;6303638;22;20038;-89
2021/11/28 14:18:43;;;;;;;9.93;7.18;;;2.80;99.90;;;;;;6281524;22;20054;-87
2021/11/28 14:21:38;;;;;;;4.93;3.72;;;2.70;99.90;;;;;;6303573;22;20030;-89
2021/11/28 14:24:32;;;;;;;5.65;3.70;;;2.70;99.90;;;;;;6285321;22;20164;-90
2021/11/28 14:27:24;;;;;;;4.38;3.75;;;2.60;99.90;;;;;;6311555;22;20030;-89
2021/11/28 14:30:14;;;;;;;4.63;3.55;;;2.50;99.90;;;;;;6310754;22;20034;-90
2021/11/28 14:33:04;;;;;;;6.25;4.10;;;2.40;99.90;;;;;;6282502;22;20034;-90
2021/11/28 14:35:53;;;;;;;5.63;4.20;;;2.30;99.90;;;;;;6284247;22;20450;-88
2021/11/28 14:38:51;;;;;;;8.10;4.00;;;2.30;99.90;;;;;;6283139;22;20553;-89
2021/11/28 14:41:39;;;;;;;6.00;4.28;;;2.30;99.90;;;;;;6306555;22;20023;-87
2021/11/28 14:44:27;;;;;;;9.10;5.03;;;2.20;99.90;;;;;;6283078;22;20602;-90
2021/11/28 14:47:28;;;;;;;5.93;4.57;;;2.20;99.90;;;;;;6282933;22;20030;-91
2021/11/28 14:50:18;;;;;;;5.15;4.25;;;2.20;99.90;;;;;;6280306;22;20030;-91
2021/11/28 14:53:10;;;;;;;8.07;5.82;;;2.10;99.90;;;;;;6281925;22;20096;-91
2021/11/28 14:55:57;;;;;;;6.22;4.10;;;2.00;99.90;;;;;;6282545;22;20051;-90
2021/11/28 14:58:47;;;;;;;10.95;5.25;;;2.00;99.90;;;;;;6304442;22;20034;-92
2021/11/28 15:01:36;;;;;;;6.18;4.63;;;1.90;99.90;;;;;;6283837;22;20116;-90
2021/11/28 15:04:26;;;;;;;8.43;4.55;;;1.90;99.90;;;;;;6285443;22;20106;-90
2021/11/28 15:07:16;;;;;;;5.53;4.63;;;1.90;99.90;;;;;;6286637;22;20410;-91